Time;durP1;ratioP1;P1;durP2;ratioP2;P2;SDS_P1;SDS_P2;PMS_P1;PMS_P2;Temp;Humidity;BMP_temperature;BMP_pressure;BME280_temperature;BME280_humidity;BME280_pressure;Samples;Min_cycle;Max_cycle;Signal;HPM_P1;HPM_P2
2021/12/30 00:01:44;;;;;;;162.38;48.72;;;5.40;99.90;;;;;;5001732;28;20057;-72
2021/12/30 00:04:10;;;;;;;173.80;49.17;;;5.50;99.90;;;;;;5005243;28;20465;-72
2021/12/30 00:06:40;;;;;;;156.07;47.55;;;5.60;99.90;;;;;;5006078;28;20480;-72
2021/12/30 00:09:09;;;;;;;161.95;47.65;;;5.70;99.90;;;;;;5005582;28;20383;-72
2021/12/30 00:11:35;;;;;;;194.23;53.70;;;5.80;99.90;;;;;;5006170;28;20061;-72
2021/12/30 00:14:01;;;;;;;180.02;48.47;;;5.80;99.90;;;;;;5002111;28;20034;-73
2021/12/30 00:16:27;;;;;;;190.75;50.45;;;5.80;99.90;;;;;;5003106;28;20465;-72
2021/12/30 00:18:53;;;;;;;240.95;51.97;;;5.80;99.90;;;;;;5004442;28;20118;-71
2021/12/30 00:21:20;;;;;;;246.60;52.63;;;5.70;99.90;;;;;;5006008;28;20073;-70
2021/12/30 00:23:46;;;;;;;194.65;49.50;;;5.70;99.90;;;;;;5006278;28;20034;-71
2021/12/30 00:26:12;;;;;;;295.48;56.20;;;5.70;99.90;;;;;;5002606;28;20444;-71
2021/12/30 00:28:38;;;;;;;417.38;58.95;;;5.70;99.90;;;;;;5003183;28;20062;-71
2021/12/30 00:31:04;;;;;;;261.55;51.30;;;5.70;99.90;;;;;;5005913;28;20105;-71
2021/12/30 00:33:32;;;;;;;432.63;56.10;;;5.70;99.90;;;;;;5004035;28;20478;-71
2021/12/30 00:35:58;;;;;;;307.63;52.30;;;5.60;99.90;;;;;;5005706;28;20030;-70
2021/12/30 00:38:23;;;;;;;344.73;51.38;;;5.70;99.90;;;;;;5000350;28;20038;-70
2021/12/30 00:40:50;;;;;;;437.45;55.45;;;5.60;99.90;;;;;;5006914;28;20034;-70
2021/12/30 00:43:16;;;;;;;415.52;53.03;;;5.60;99.90;;;;;;5006620;28;20032;-70
2021/12/30 00:45:43;;;;;;;410.52;57.78;;;5.60;99.90;;;;;;5003804;28;20060;-70
2021/12/30 00:48:09;;;;;;;356.83;50.33;;;5.60;99.90;;;;;;5006025;28;20030;-72
2021/12/30 00:50:37;;;;;;;320.67;46.63;;;5.60;99.90;;;;;;5005246;28;20494;-72
2021/12/30 00:53:05;;;;;;;448.50;51.08;;;5.60;99.90;;;;;;5003090;28;20027;-72
2021/12/30 00:55:30;;;;;;;372.27;49.97;;;5.50;99.90;;;;;;5005178;28;20045;-72
2021/12/30 00:57:56;;;;;;;229.98;47.00;;;5.60;99.90;;;;;;5004353;28;20026;-72
2021/12/30 01:00:23;;;;;;;379.48;56.08;;;5.60;99.90;;;;;;5004728;28;20113;-72
2021/12/30 01:02:48;;;;;;;248.68;46.63;;;5.60;99.90;;;;;;5005231;28;20018;-71
2021/12/30 01:05:14;;;;;;;180.27;43.75;;;5.70;99.90;;;;;;5001001;28;20114;-71
2021/12/30 01:07:40;;;;;;;224.93;45.42;;;5.70;99.90;;;;;;5003506;28;20462;-71
2021/12/30 01:10:09;;;;;;;243.40;45.83;;;5.80;99.90;;;;;;5004561;28;20042;-71
2021/12/30 01:12:35;;;;;;;214.90;43.30;;;5.90;99.90;;;;;;5003097;28;20371;-70
2021/12/30 01:15:07;;;;;;;206.43;42.22;;;5.90;99.90;;;;;;5005881;28;20040;-71
2021/12/30 01:20:10;;;;;;;191.23;40.70;;;6.00;99.90;;;;;;5003811;28;20032;-70
2021/12/30 01:22:36;;;;;;;159.38;36.97;;;6.00;99.90;;;;;;5013552;28;20106;-69
2021/12/30 01:25:07;;;;;;;161.25;37.17;;;6.00;99.90;;;;;;5026832;28;20034;-68
2021/12/30 01:27:35;;;;;;;175.85;32.63;;;6.10;99.90;;;;;;5014881;28;20030;-69
2021/12/30 01:30:01;;;;;;;150.07;31.40;;;6.10;99.90;;;;;;5022874;28;20187;-69
2021/12/30 01:32:26;;;;;;;143.00;26.52;;;6.20;99.90;;;;;;5014074;28;20489;-69
2021/12/30 01:34:52;;;;;;;137.93;28.60;;;6.20;99.90;;;;;;5013323;28;20025;-69
2021/12/30 01:37:21;;;;;;;121.75;22.55;;;6.20;99.90;;;;;;5013773;28;20112;-69
2021/12/30 01:39:47;;;;;;;145.02;23.70;;;6.20;99.90;;;;;;5013531;28;20026;-70
2021/12/30 01:42:12;;;;;;;122.32;23.15;;;6.20;99.90;;;;;;5028658;28;20021;-69
2021/12/30 01:44:38;;;;;;;139.73;21.33;;;6.20;99.90;;;;;;5013157;28;20018;-70
2021/12/30 01:47:04;;;;;;;124.15;21.73;;;6.20;99.90;;;;;;5013674;28;20556;-70
2021/12/30 01:49:30;;;;;;;149.70;21.88;;;6.30;99.90;;;;;;5013636;28;20096;-70
2021/12/30 01:51:57;;;;;;;108.70;21.38;;;6.20;99.90;;;;;;5013110;28;20030;-70
2021/12/30 01:54:24;;;;;;;128.55;18.02;;;6.20;99.90;;;;;;5013513;28;20034;-69
2021/12/30 01:56:51;;;;;;;130.10;18.05;;;6.30;99.90;;;;;;5013583;28;20029;-69
2021/12/30 01:59:22;;;;;;;116.35;18.60;;;6.30;99.90;;;;;;5013653;28;20082;-69
2021/12/30 02:01:53;;;;;;;111.90;16.08;;;6.30;99.90;;;;;;5013429;28;20441;-69
2021/12/30 02:04:19;;;;;;;146.82;18.85;;;6.30;99.90;;;;;;5013630;28;20104;-70
2021/12/30 02:06:45;;;;;;;123.80;19.05;;;6.30;99.90;;;;;;5013457;28;20068;-69
2021/12/30 02:09:11;;;;;;;125.72;15.63;;;6.30;99.90;;;;;;5012734;28;20034;-69
2021/12/30 02:11:36;;;;;;;139.80;16.35;;;6.30;99.90;;;;;;5013406;28;20034;-70
2021/12/30 02:14:02;;;;;;;124.53;14.90;;;6.30;99.90;;;;;;5013933;28;20030;-70
2021/12/30 02:16:28;;;;;;;145.60;16.05;;;6.30;99.90;;;;;;5013647;28;20034;-70
2021/12/30 02:18:53;;;;;;;109.85;13.18;;;6.30;99.90;;;;;;5013092;28;20061;-69
2021/12/30 02:21:19;;;;;;;147.10;14.35;;;6.40;99.90;;;;;;5015279;28;20034;-69
2021/12/30 02:23:45;;;;;;;142.60;15.38;;;6.40;99.90;;;;;;5013299;28;20498;-69
2021/12/30 02:26:13;;;;;;;167.30;17.70;;;6.50;99.90;;;;;;5015599;28;20542;-69
2021/12/30 02:28:40;;;;;;;118.97;14.05;;;6.60;99.90;;;;;;5013099;28;20091;-69
2021/12/30 02:31:12;;;;;;;162.00;13.68;;;6.60;99.90;;;;;;5021564;28;20106;-69
2021/12/30 02:33:39;;;;;;;125.90;13.82;;;6.70;99.90;;;;;;5032681;28;20022;-70
2021/12/30 02:36:05;;;;;;;176.38;14.55;;;6.80;99.90;;;;;;5031008;28;20159;-69
2021/12/30 02:38:31;;;;;;;148.50;13.52;;;6.80;99.90;;;;;;5032854;28;20037;-69
2021/12/30 02:40:59;;;;;;;150.27;15.30;;;6.90;99.90;;;;;;5028807;28;20116;-69
2021/12/30 02:43:27;;;;;;;130.70;14.70;;;6.90;99.90;;;;;;5032378;28;20036;-69
2021/12/30 02:45:54;;;;;;;144.63;15.80;;;6.90;99.90;;;;;;5032836;28;20101;-69
2021/12/30 02:48:25;;;;;;;144.50;16.13;;;7.00;99.90;;;;;;5028452;28;20076;-69
2021/12/30 02:50:54;;;;;;;128.70;15.02;;;7.00;99.90;;;;;;4994560;28;20125;-70
2021/12/30 02:53:20;;;;;;;142.88;13.85;;;7.10;99.90;;;;;;4995004;28;20026;-70
2021/12/30 02:55:46;;;;;;;166.77;19.67;;;7.10;99.90;;;;;;5009804;28;20033;-69
2021/12/30 02:58:12;;;;;;;145.23;14.35;;;7.30;99.90;;;;;;4999125;28;20038;-69
2021/12/30 03:00:39;;;;;;;138.73;15.70;;;7.30;99.90;;;;;;4997042;28;20030;-70
2021/12/30 03:03:05;;;;;;;124.53;14.65;;;7.40;99.90;;;;;;4997100;28;20056;-70
2021/12/30 03:05:31;;;;;;;136.60;15.38;;;7.40;99.90;;;;;;4997066;28;20053;-70
2021/12/30 03:07:57;;;;;;;118.53;12.73;;;7.40;99.90;;;;;;4996231;28;20037;-70
2021/12/30 03:10:25;;;;;;;129.80;14.77;;;7.30;99.90;;;;;;5009771;28;20040;-70
2021/12/30 03:12:55;;;;;;;167.30;17.90;;;7.40;99.90;;;;;;5012322;28;20160;-70
2021/12/30 03:15:22;;;;;;;140.98;14.68;;;7.40;99.90;;;;;;5016774;28;20133;-70
2021/12/30 03:17:48;;;;;;;150.27;14.38;;;7.30;99.90;;;;;;5016281;28;20421;-70
2021/12/30 03:20:14;;;;;;;171.25;17.38;;;7.30;99.90;;;;;;5012898;28;20076;-70
2021/12/30 03:22:40;;;;;;;164.75;17.48;;;7.30;99.90;;;;;;5016334;28;20026;-70
2021/12/30 03:25:09;;;;;;;138.73;17.40;;;7.20;99.90;;;;;;5013229;28;20061;-70
2021/12/30 03:27:35;;;;;;;111.78;13.60;;;7.20;99.90;;;;;;5007696;28;20029;-70
2021/12/30 03:30:03;;;;;;;144.85;15.73;;;7.30;99.90;;;;;;5015555;28;20072;-70
2021/12/30 03:32:29;;;;;;;122.20;15.00;;;7.20;99.90;;;;;;5004392;28;20113;-70
2021/12/30 03:34:54;;;;;;;147.30;15.07;;;7.20;99.90;;;;;;4996514;28;20058;-70
2021/12/30 03:37:20;;;;;;;134.82;15.70;;;7.20;99.90;;;;;;5003021;28;20548;-70
2021/12/30 03:39:47;;;;;;;149.23;15.98;;;7.20;99.90;;;;;;5015870;28;20029;-70
2021/12/30 03:42:13;;;;;;;139.40;14.30;;;7.10;99.90;;;;;;5012802;28;20026;-70
2021/12/30 03:44:39;;;;;;;118.95;14.63;;;7.00;99.90;;;;;;5015893;28;20095;-70
2021/12/30 03:47:06;;;;;;;167.88;17.42;;;7.00;99.90;;;;;;5009091;28;20026;-70
2021/12/30 03:49:31;;;;;;;140.50;18.00;;;6.90;99.90;;;;;;4996133;28;20041;-70
2021/12/30 03:51:57;;;;;;;136.23;12.63;;;6.80;99.90;;;;;;4997478;28;20481;-69
2021/12/30 03:54:23;;;;;;;113.93;14.23;;;6.60;99.90;;;;;;5016294;28;20026;-70
2021/12/30 03:56:48;;;;;;;106.25;13.60;;;6.60;99.90;;;;;;5003633;28;20061;-70
2021/12/30 03:59:14;;;;;;;142.52;14.60;;;6.70;99.90;;;;;;4996013;28;20601;-70
2021/12/30 04:01:40;;;;;;;126.07;14.40;;;6.70;99.90;;;;;;4998205;28;20034;-69
2021/12/30 04:04:05;;;;;;;139.85;14.05;;;6.70;99.90;;;;;;4995292;28;20058;-69
2021/12/30 04:06:31;;;;;;;121.90;14.90;;;6.70;99.90;;;;;;4996212;28;20130;-70
2021/12/30 04:08:57;;;;;;;124.53;13.73;;;6.60;99.90;;;;;;5011187;28;20057;-70
2021/12/30 04:11:25;;;;;;;132.15;14.00;;;6.60;99.90;;;;;;5007759;28;20042;-70
2021/12/30 04:13:51;;;;;;;132.35;13.10;;;6.50;99.90;;;;;;4995276;28;20065;-70
2021/12/30 04:16:21;;;;;;;133.75;13.27;;;6.60;99.90;;;;;;5007086;28;20046;-69
2021/12/30 04:18:48;;;;;;;152.80;13.73;;;6.60;99.90;;;;;;5015172;28;20033;-70
2021/12/30 04:21:21;;;;;;;105.68;12.65;;;6.60;99.90;;;;;;5015048;28;20422;-70
2021/12/30 04:23:46;;;;;;;114.22;14.18;;;6.60;99.90;;;;;;4995114;28;20483;-70
2021/12/30 04:26:12;;;;;;;121.53;13.63;;;6.60;99.90;;;;;;5008260;28;20048;-69
2021/12/30 04:28:39;;;;;;;121.72;13.63;;;6.50;99.90;;;;;;4995720;28;20037;-70
2021/12/30 04:31:05;;;;;;;111.63;12.63;;;6.60;99.90;;;;;;4995441;28;20482;-69
2021/12/30 04:33:30;;;;;;;146.15;14.82;;;6.60;99.90;;;;;;4994912;28;20034;-70
2021/12/30 04:35:57;;;;;;;116.75;13.43;;;6.60;99.90;;;;;;4998058;28;20042;-69
2021/12/30 04:38:28;;;;;;;147.93;16.50;;;6.50;99.90;;;;;;5014845;28;20505;-70
2021/12/30 04:40:54;;;;;;;134.90;12.82;;;6.50;99.90;;;;;;5014547;28;20042;-69
2021/12/30 04:43:19;;;;;;;149.48;16.25;;;6.50;99.90;;;;;;5010977;28;20097;-70
2021/12/30 04:45:47;;;;;;;147.10;16.48;;;6.50;99.90;;;;;;5011999;28;20026;-69
2021/12/30 04:48:16;;;;;;;134.23;14.85;;;6.50;99.90;;;;;;5014642;28;20025;-70
2021/12/30 04:50:45;;;;;;;140.50;15.13;;;6.50;99.90;;;;;;5013874;28;20026;-69
2021/12/30 04:53:11;;;;;;;119.22;12.23;;;6.50;99.90;;;;;;5011486;28;20032;-70
2021/12/30 04:55:37;;;;;;;135.90;13.30;;;6.50;99.90;;;;;;5014045;28;20026;-70
2021/12/30 04:58:04;;;;;;;121.47;13.30;;;6.40;99.90;;;;;;5014557;28;20081;-69
2021/12/30 05:00:31;;;;;;;141.05;14.68;;;6.30;99.90;;;;;;5013585;28;20030;-69
2021/12/30 05:05:32;;;;;;;139.13;14.68;;;6.30;99.90;;;;;;5006435;28;20034;-70
2021/12/30 05:07:57;;;;;;;129.48;13.57;;;6.30;99.90;;;;;;5014457;28;20119;-69
2021/12/30 05:10:23;;;;;;;131.90;14.65;;;6.40;99.90;;;;;;5004332;28;20026;-69
2021/12/30 05:12:49;;;;;;;100.50;14.63;;;6.30;99.90;;;;;;4994721;28;20038;-70
2021/12/30 05:15:14;;;;;;;130.75;13.85;;;6.30;99.90;;;;;;4999602;28;20041;-69
2021/12/30 05:17:41;;;;;;;138.55;15.27;;;6.30;99.90;;;;;;5014476;28;20037;-69
2021/12/30 05:20:08;;;;;;;136.27;16.02;;;6.30;99.90;;;;;;5013539;28;20018;-70
2021/12/30 05:22:34;;;;;;;137.43;15.95;;;6.30;99.90;;;;;;4998327;28;20025;-69
2021/12/30 05:25:00;;;;;;;137.52;15.98;;;6.30;99.90;;;;;;5003594;28;20030;-69
2021/12/30 05:27:25;;;;;;;163.27;16.77;;;6.30;99.90;;;;;;4995931;28;20502;-70
2021/12/30 05:29:51;;;;;;;130.85;13.60;;;6.30;99.90;;;;;;4994559;28;20049;-70
2021/12/30 05:32:16;;;;;;;118.80;14.35;;;6.40;99.90;;;;;;4993839;28;20437;-69
2021/12/30 05:34:42;;;;;;;121.90;16.00;;;6.30;99.90;;;;;;4994274;28;20446;-69
2021/12/30 05:37:07;;;;;;;159.32;15.68;;;6.30;99.90;;;;;;4994273;28;20026;-70
2021/12/30 05:39:37;;;;;;;145.80;14.52;;;6.20;99.90;;;;;;4994072;28;20030;-70
2021/12/30 05:42:03;;;;;;;132.35;13.30;;;6.10;99.90;;;;;;4993661;28;20018;-69
2021/12/30 05:44:28;;;;;;;125.72;13.95;;;6.00;99.90;;;;;;4994724;28;20445;-70
2021/12/30 05:46:54;;;;;;;131.07;15.27;;;6.00;99.90;;;;;;4994211;28;20101;-70
2021/12/30 05:49:20;;;;;;;139.98;14.52;;;5.80;99.90;;;;;;4994027;28;20030;-69
2021/12/30 05:51:45;;;;;;;118.15;14.65;;;5.70;99.90;;;;;;4993470;28;20027;-69
2021/12/30 05:54:11;;;;;;;147.00;15.88;;;5.50;99.90;;;;;;4994003;28;20070;-70
2021/12/30 05:56:36;;;;;;;140.65;15.48;;;5.40;99.90;;;;;;4995907;28;20030;-69
2021/12/30 05:59:02;;;;;;;133.30;15.05;;;5.40;99.90;;;;;;4993901;28;20126;-69
2021/12/30 06:01:27;;;;;;;152.85;16.27;;;5.40;99.90;;;;;;4996365;28;20031;-70
2021/12/30 06:03:53;;;;;;;187.50;17.65;;;5.40;99.90;;;;;;4993910;28;20418;-70
2021/12/30 06:06:18;;;;;;;186.73;17.92;;;5.50;99.90;;;;;;4995894;28;20018;-70
2021/12/30 06:08:44;;;;;;;174.48;19.30;;;5.50;99.90;;;;;;4994005;28;20041;-69
2021/12/30 06:11:09;;;;;;;123.15;17.15;;;5.60;99.90;;;;;;4993681;28;20133;-68
2021/12/30 06:13:35;;;;;;;142.23;16.85;;;5.70;99.90;;;;;;5010232;28;20045;-70
2021/12/30 06:16:00;;;;;;;167.82;19.77;;;5.70;99.90;;;;;;5012839;28;20032;-69
2021/12/30 06:18:26;;;;;;;179.10;19.98;;;5.70;99.90;;;;;;5000413;28;20026;-69
2021/12/30 06:20:52;;;;;;;137.52;17.15;;;5.80;99.90;;;;;;4993642;28;20034;-69
2021/12/30 06:23:17;;;;;;;187.15;19.83;;;5.80;99.90;;;;;;4995991;28;20470;-69
2021/12/30 06:25:43;;;;;;;205.02;23.33;;;5.70;99.90;;;;;;4999374;28;20102;-69
2021/12/30 06:28:08;;;;;;;182.45;19.13;;;5.80;99.90;;;;;;5015375;28;20113;-69
2021/12/30 06:30:34;;;;;;;177.57;19.95;;;5.60;99.90;;;;;;5013507;28;20066;-69
2021/12/30 06:33:00;;;;;;;166.30;19.27;;;5.60;99.90;;;;;;5014190;28;20481;-69
2021/12/30 06:35:31;;;;;;;205.05;21.33;;;5.60;99.90;;;;;;5010942;28;20042;-70
2021/12/30 06:37:57;;;;;;;170.55;20.27;;;5.50;99.90;;;;;;4997548;28;20026;-69
2021/12/30 06:40:23;;;;;;;155.77;20.27;;;5.50;99.90;;;;;;4999211;28;20034;-69
2021/12/30 06:42:48;;;;;;;129.13;16.95;;;5.50;99.90;;;;;;5014363;28;20465;-69
2021/12/30 06:45:14;;;;;;;200.23;19.80;;;5.40;99.90;;;;;;5017023;28;20029;-69
2021/12/30 06:47:40;;;;;;;208.48;22.38;;;5.30;99.90;;;;;;5000901;28;20033;-70
2021/12/30 06:50:07;;;;;;;204.73;22.25;;;5.30;99.90;;;;;;4995520;28;20034;-69
2021/12/30 06:52:33;;;;;;;187.27;22.95;;;5.30;99.90;;;;;;4999748;28;20037;-69
2021/12/30 06:54:59;;;;;;;207.02;22.52;;;5.20;99.90;;;;;;4997509;28;20031;-69
2021/12/30 06:57:25;;;;;;;211.75;25.75;;;5.30;99.90;;;;;;5008003;28;20042;-69
2021/12/30 06:59:50;;;;;;;230.05;24.77;;;5.40;99.90;;;;;;5016632;28;20033;-69
2021/12/30 07:02:17;;;;;;;215.32;22.55;;;5.40;99.90;;;;;;5009545;28;20105;-69
2021/12/30 07:04:42;;;;;;;235.80;25.48;;;5.50;99.90;;;;;;4997053;28;20027;-69
2021/12/30 07:07:08;;;;;;;228.60;25.45;;;5.40;99.90;;;;;;4999567;28;20045;-69
2021/12/30 07:09:34;;;;;;;202.02;22.83;;;5.40;99.90;;;;;;4996913;28;20031;-70
2021/12/30 07:11:59;;;;;;;213.35;26.23;;;5.50;99.90;;;;;;5008235;28;20460;-69
2021/12/30 07:14:25;;;;;;;215.00;25.77;;;5.40;99.90;;;;;;5015670;28;20030;-69
2021/12/30 07:16:51;;;;;;;221.50;22.65;;;5.50;99.90;;;;;;5016459;28;20022;-69
2021/12/30 07:19:17;;;;;;;161.70;21.15;;;5.60;99.90;;;;;;5014193;28;20022;-69
2021/12/30 07:21:43;;;;;;;210.38;23.85;;;5.50;99.90;;;;;;4996651;28;20539;-69
2021/12/30 07:24:09;;;;;;;202.02;22.33;;;5.50;99.90;;;;;;4996780;28;20029;-69
2021/12/30 07:26:36;;;;;;;154.00;19.00;;;5.50;99.90;;;;;;5011184;28;20068;-69
2021/12/30 07:29:03;;;;;;;208.20;20.63;;;5.60;99.90;;;;;;5016194;28;20462;-69
2021/12/30 07:31:30;;;;;;;210.95;22.58;;;5.70;99.90;;;;;;5012539;28;20034;-69
2021/12/30 07:33:55;;;;;;;183.05;21.73;;;5.80;99.90;;;;;;4996851;28;20026;-69
2021/12/30 07:36:21;;;;;;;166.75;20.42;;;5.80;99.90;;;;;;4996589;28;20033;-69
2021/12/30 07:38:48;;;;;;;199.15;23.63;;;5.80;99.90;;;;;;4997150;28;20084;-69
2021/12/30 07:41:14;;;;;;;190.00;22.00;;;5.90;99.90;;;;;;4998665;28;20026;-69
2021/12/30 07:43:40;;;;;;;184.77;20.00;;;6.00;99.90;;;;;;4998642;28;20519;-69
2021/12/30 07:46:07;;;;;;;200.15;23.20;;;5.90;99.90;;;;;;4996588;28;20034;-69
2021/12/30 07:48:33;;;;;;;153.82;20.05;;;6.10;99.90;;;;;;4998242;28;20022;-69
2021/12/30 07:50:59;;;;;;;205.48;21.75;;;6.10;99.90;;;;;;5015340;28;20120;-69
2021/12/30 07:53:24;;;;;;;236.88;23.42;;;6.20;99.90;;;;;;5015324;28;20022;-69
2021/12/30 07:55:50;;;;;;;162.75;19.95;;;6.20;99.90;;;;;;4998630;28;20125;-69
2021/12/30 07:58:16;;;;;;;169.43;19.70;;;6.20;99.90;;;;;;5013473;28;20026;-69
2021/12/30 08:00:42;;;;;;;204.77;23.15;;;6.20;99.90;;;;;;5015047;28;20493;-69
2021/12/30 08:03:08;;;;;;;225.88;23.33;;;6.30;99.90;;;;;;5001411;28;20034;-69
2021/12/30 08:05:33;;;;;;;174.27;21.23;;;6.30;99.90;;;;;;4996009;28;20436;-69
2021/12/30 08:07:59;;;;;;;152.73;19.10;;;6.30;99.90;;;;;;5002726;28;20033;-69
2021/12/30 08:10:25;;;;;;;201.40;19.27;;;6.30;99.90;;;;;;5015758;28;20112;-70
2021/12/30 08:12:52;;;;;;;201.57;21.83;;;6.20;99.90;;;;;;4998763;28;20081;-69
2021/12/30 08:15:18;;;;;;;173.75;22.00;;;6.30;99.90;;;;;;4995508;28;20026;-69
2021/12/30 08:17:45;;;;;;;226.70;22.88;;;6.30;99.90;;;;;;4998144;28;20035;-69
2021/12/30 08:20:12;;;;;;;199.98;22.17;;;6.40;99.90;;;;;;4995609;28;20027;-69
2021/12/30 08:22:38;;;;;;;162.80;19.83;;;6.40;99.90;;;;;;4997919;28;20040;-69
2021/12/30 08:25:05;;;;;;;160.82;20.15;;;6.50;99.90;;;;;;4995593;28;20080;-70
2021/12/30 08:27:31;;;;;;;200.48;24.70;;;6.60;99.90;;;;;;4994978;28;20112;-69
2021/12/30 08:29:57;;;;;;;211.63;23.00;;;6.70;99.90;;;;;;5013551;28;20112;-69
2021/12/30 08:32:23;;;;;;;208.30;23.02;;;6.80;99.90;;;;;;5015605;28;20029;-70
2021/12/30 08:34:48;;;;;;;216.40;20.63;;;6.70;99.90;;;;;;5007620;28;20061;-69
2021/12/30 08:37:16;;;;;;;226.88;23.23;;;6.70;99.90;;;;;;5014950;28;20021;-70
2021/12/30 08:39:42;;;;;;;205.82;23.08;;;6.70;99.90;;;;;;5012123;28;20029;-69
2021/12/30 08:42:19;;;;;;;191.82;21.55;;;6.60;99.90;;;;;;5005462;28;20030;-69
2021/12/30 08:44:45;;;;;;;189.77;20.63;;;6.60;99.90;;;;;;5015110;28;20018;-70
2021/12/30 08:47:11;;;;;;;178.15;18.95;;;6.60;99.90;;;;;;5010384;28;20087;-70
2021/12/30 08:49:37;;;;;;;166.07;20.80;;;6.50;99.90;;;;;;5014177;28;20030;-69
2021/12/30 08:52:03;;;;;;;186.77;21.02;;;6.50;99.90;;;;;;5013964;28;20026;-69
2021/12/30 08:54:31;;;;;;;203.88;22.30;;;6.50;99.90;;;;;;5014885;28;20018;-70
2021/12/30 08:56:57;;;;;;;237.48;24.13;;;6.50;99.90;;;;;;5000143;28;20034;-69
2021/12/30 08:59:22;;;;;;;240.07;21.27;;;6.60;99.90;;;;;;4995016;28;20026;-70
2021/12/30 09:01:48;;;;;;;170.90;21.90;;;6.60;99.90;;;;;;4996623;28;20046;-69
2021/12/30 09:04:13;;;;;;;322.17;26.00;;;6.60;99.90;;;;;;4994865;28;20097;-69
2021/12/30 09:06:39;;;;;;;126.15;18.77;;;6.60;99.90;;;;;;4999489;28;20100;-69
2021/12/30 09:09:04;;;;;;;170.95;20.10;;;6.60;99.90;;;;;;5014068;28;20069;-69
2021/12/30 09:11:30;;;;;;;189.25;21.88;;;6.70;99.90;;;;;;5009834;28;20042;-69
2021/12/30 09:13:56;;;;;;;217.27;22.27;;;6.80;99.90;;;;;;5014028;28;20048;-69
2021/12/30 09:16:21;;;;;;;259.08;22.40;;;6.80;99.90;;;;;;5005507;28;20390;-69
2021/12/30 09:18:47;;;;;;;179.23;22.42;;;6.90;99.90;;;;;;4994557;28;20549;-69
2021/12/30 09:21:12;;;;;;;276.27;24.67;;;6.90;99.90;;;;;;4997014;28;20060;-69
2021/12/30 09:23:38;;;;;;;264.75;23.23;;;6.90;99.90;;;;;;4994004;28;20033;-69
2021/12/30 09:26:03;;;;;;;177.48;21.58;;;6.90;99.90;;;;;;4994446;28;20018;-69
2021/12/30 09:28:29;;;;;;;240.13;24.80;;;7.10;99.90;;;;;;5010787;28;20030;-69
2021/12/30 09:30:54;;;;;;;226.23;27.17;;;7.00;99.90;;;;;;5006020;28;20038;-69
2021/12/30 09:33:21;;;;;;;195.57;27.13;;;7.20;99.90;;;;;;4993974;28;20026;-69
2021/12/30 09:35:49;;;;;;;224.13;26.05;;;7.20;99.90;;;;;;4996869;28;20440;-69
2021/12/30 09:38:15;;;;;;;239.18;27.42;;;7.20;99.90;;;;;;4994220;28;20096;-69
2021/12/30 09:40:41;;;;;;;274.63;25.75;;;7.30;99.90;;;;;;4994720;28;20577;-69
2021/12/30 09:43:09;;;;;;;262.90;25.50;;;7.30;99.90;;;;;;4995935;28;20030;-69
2021/12/30 09:45:37;;;;;;;162.85;23.20;;;7.40;99.90;;;;;;4993876;28;20482;-69
2021/12/30 09:48:06;;;;;;;318.05;28.15;;;7.40;99.90;;;;;;4996416;28;20026;-69
2021/12/30 09:50:36;;;;;;;222.75;26.98;;;7.50;99.90;;;;;;4994120;28;20026;-69
2021/12/30 09:53:02;;;;;;;270.23;26.77;;;7.50;99.90;;;;;;5000438;28;20392;-69
2021/12/30 09:55:28;;;;;;;189.85;24.60;;;7.50;99.90;;;;;;5006599;28;20092;-69
2021/12/30 09:57:55;;;;;;;170.43;24.73;;;7.50;99.90;;;;;;4993934;28;20058;-69
2021/12/30 10:00:22;;;;;;;192.13;24.88;;;7.60;99.90;;;;;;4996493;28;20030;-69
2021/12/30 10:02:48;;;;;;;146.98;26.30;;;7.70;99.90;;;;;;5013336;28;20056;-69
2021/12/30 10:05:17;;;;;;;135.27;24.92;;;7.80;99.90;;;;;;5014335;28;20030;-69
2021/12/30 10:07:43;;;;;;;129.48;24.88;;;7.90;99.90;;;;;;4998138;28;20089;-69
2021/12/30 10:10:32;;;;;;;142.55;23.15;;;8.00;99.90;;;;;;4994439;28;20034;-68
2021/12/30 10:12:58;;;;;;;95.05;20.05;;;8.00;99.90;;;;;;5013777;28;20022;-69
2021/12/30 10:15:27;;;;;;;126.07;24.05;;;8.10;99.90;;;;;;5013666;28;20030;-69
2021/12/30 10:17:59;;;;;;;114.15;23.05;;;8.10;99.90;;;;;;5013337;28;20057;-69
2021/12/30 10:20:29;;;;;;;135.70;25.65;;;8.20;99.90;;;;;;5012811;28;20022;-69
2021/12/30 10:23:06;;;;;;;124.75;26.40;;;8.30;99.90;;;;;;4997282;28;20022;-69
2021/12/30 10:25:38;;;;;;;106.40;25.00;;;8.30;99.90;;;;;;4993643;28;20038;-69
2021/12/30 10:28:33;;;;;;;110.70;26.27;;;8.40;99.90;;;;;;4995867;28;20029;-69
2021/12/30 10:31:12;;;;;;;96.85;24.20;;;8.40;99.90;;;;;;4993250;28;20034;-69
2021/12/30 10:33:49;;;;;;;112.03;23.05;;;8.40;99.90;;;;;;4993926;28;20026;-69
2021/12/30 10:36:33;;;;;;;101.78;23.80;;;8.40;99.90;;;;;;4996131;28;20545;-69
2021/12/30 10:39:34;;;;;;;85.35;21.92;;;8.40;99.90;;;;;;4993597;28;20634;-69
2021/12/30 10:42:05;;;;;;;84.97;19.35;;;8.50;99.90;;;;;;5002858;28;20120;-69
2021/12/30 10:45:02;;;;;;;58.35;18.15;;;8.60;99.90;;;;;;5013467;28;20535;-69
2021/12/30 10:47:34;;;;;;;46.70;15.77;;;8.60;99.90;;;;;;4996518;28;20035;-69
2021/12/30 10:50:02;;;;;;;48.88;14.75;;;8.70;99.90;;;;;;4993483;28;20031;-69
2021/12/30 10:52:29;;;;;;;46.17;15.07;;;8.60;99.90;;;;;;5004879;28;20030;-69
2021/12/30 10:54:56;;;;;;;52.50;16.30;;;8.70;99.90;;;;;;5012629;28;20030;-69
2021/12/30 10:57:28;;;;;;;57.58;15.88;;;8.80;99.90;;;;;;5005395;28;20026;-69
2021/12/30 10:59:54;;;;;;;56.78;15.07;;;8.80;99.90;;;;;;4993489;28;20482;-70
2021/12/30 11:02:22;;;;;;;48.33;13.73;;;8.90;99.90;;;;;;5007071;28;20022;-70
2021/12/30 11:04:57;;;;;;;50.65;14.02;;;8.90;99.90;;;;;;5011125;28;20029;-70
2021/12/30 11:07:43;;;;;;;51.75;12.73;;;9.00;99.90;;;;;;5013320;28;20022;-70
2021/12/30 11:10:10;;;;;;;46.25;13.50;;;9.00;99.90;;;;;;4998178;28;20030;-69
2021/12/30 11:12:38;;;;;;;36.50;12.68;;;9.00;99.90;;;;;;4992080;28;20037;-69
2021/12/30 11:15:18;;;;;;;36.15;11.82;;;9.00;99.90;;;;;;4998128;28;20184;-69
2021/12/30 11:17:44;;;;;;;42.28;11.98;;;9.00;99.90;;;;;;5014363;28;20029;-69
2021/12/30 11:20:11;;;;;;;38.17;11.20;;;9.00;99.90;;;;;;5016016;28;20104;-69
2021/12/30 11:22:41;;;;;;;37.13;11.52;;;9.10;99.90;;;;;;4999264;28;20030;-69
2021/12/30 11:25:10;;;;;;;30.60;10.27;;;9.10;99.90;;;;;;4996243;28;20027;-69
2021/12/30 11:27:37;;;;;;;27.90;9.40;;;9.00;99.90;;;;;;4998990;28;20030;-69
2021/12/30 11:30:09;;;;;;;32.47;10.45;;;9.00;99.90;;;;;;4996604;28;20022;-69
2021/12/30 11:32:36;;;;;;;23.23;8.25;;;8.90;99.90;;;;;;5012478;28;20038;-70
2021/12/30 11:35:05;;;;;;;30.67;8.95;;;8.90;99.90;;;;;;5015636;28;20496;-69
2021/12/30 11:37:31;;;;;;;21.52;8.70;;;9.00;99.90;;;;;;5003635;28;20449;-69
2021/12/30 11:40:00;;;;;;;20.17;7.97;;;9.00;99.90;;;;;;4996615;28;20069;-69
2021/12/30 11:42:37;;;;;;;19.20;8.27;;;9.00;99.90;;;;;;4997767;28;20386;-69
2021/12/30 11:45:21;;;;;;;18.88;7.90;;;9.00;99.90;;;;;;4996438;28;20018;-70
2021/12/30 11:47:47;;;;;;;19.48;6.53;;;9.00;99.90;;;;;;5012033;28;20026;-70
2021/12/30 11:50:32;;;;;;;21.92;7.53;;;8.90;99.90;;;;;;5015792;28;20545;-70
2021/12/30 11:53:04;;;;;;;17.38;7.60;;;8.90;99.90;;;;;;4999877;28;20513;-69
2021/12/30 11:55:51;;;;;;;24.42;8.30;;;8.90;99.90;;;;;;4996455;28;20037;-69
2021/12/30 11:58:32;;;;;;;24.02;7.95;;;8.90;99.90;;;;;;5013851;28;20030;-70
2021/12/30 12:01:16;;;;;;;24.95;8.57;;;8.80;99.90;;;;;;5011495;28;20428;-69
2021/12/30 12:03:54;;;;;;;29.40;8.70;;;8.80;99.90;;;;;;4996302;28;20089;-69
2021/12/30 12:06:30;;;;;;;22.17;7.72;;;8.80;99.90;;;;;;4998716;28;20043;-69
2021/12/30 12:09:06;;;;;;;22.05;7.35;;;8.80;99.90;;;;;;5023542;23;20493;-72
2021/12/30 12:11:41;;;;;;;17.77;6.40;;;8.70;99.90;;;;;;5015809;28;20101;-72
2021/12/30 12:14:14;;;;;;;20.10;7.40;;;8.60;99.90;;;;;;5016185;28;20088;-72
2021/12/30 12:17:18;;;;;;;19.05;6.30;;;8.70;99.90;;;;;;4995815;28;20437;-72
2021/12/30 12:19:53;;;;;;;16.60;6.47;;;8.70;99.90;;;;;;4970136;28;20030;-72
2021/12/30 12:22:19;;;;;;;14.90;5.53;;;8.70;99.90;;;;;;5034794;28;20088;-72
2021/12/30 12:24:46;;;;;;;20.25;6.82;;;8.70;99.90;;;;;;5034904;28;20025;-72
2021/12/30 12:27:33;;;;;;;27.52;7.55;;;8.70;99.90;;;;;;5034984;28;20021;-72
2021/12/30 12:30:00;;;;;;;23.23;7.57;;;8.60;99.90;;;;;;5035019;28;20083;-71
2021/12/30 12:32:29;;;;;;;58.15;8.90;;;8.60;99.90;;;;;;5031482;28;20057;-71
2021/12/30 12:34:55;;;;;;;20.98;8.02;;;8.50;99.90;;;;;;5033484;28;20079;-71
2021/12/30 12:37:29;;;;;;;32.30;9.00;;;8.40;99.90;;;;;;5031936;28;20072;-72
2021/12/30 12:40:06;;;;;;;26.77;7.97;;;8.30;99.90;;;;;;5014284;28;20025;-71